Calico Basin, Nevada
Current Conditions -  °F | °C
As of 3:56 PM on Sunday 23 Nov 2014 (Local Time) from KHND Reporting Station
Clear Clear  
Wind Chill: 15°   Ceiling: Unl
Heat Index: 15°   Visibility: 10mi
Dew Point: -13°   Wind: 7mph
Humidity: 14%   Direction: 350°N
Pressure: 30.23"   Gusts: NA
Location:  35.8437°N, 115.134°W
Report Text: KHND 232356Z AUTO 35006KT 10SM CLR 15/M13 A3023 RMK AO2 TSNO 55007 T01501127 10161 20133 SLP233
Loading
Personal Weather Stations






























Interactive Weather Map New forecast layout! Learn more

10-Day Weather Forecast

Advertisements
Track Severe Weather on mobile